Baker Lake, Canada
Current Conditions -  °F | °C
As of 1:00 PM on Tuesday 21 Oct 2014 (Local Time) from CYBK Reporting Station
Drizzle Drizzle  
Wind Chill: 28°   Ceiling: 700
Heat Index: 34°   Visibility: 15mi
Dew Point: 34°   Wind: 7mph
Humidity: 100%   Direction: 230°SW
Pressure: 29.39"   Gusts: NA
Location:  64.32°N, 96.02°W
Report Text: CYBK 211800Z 23006KT 15SM -DZ BKN007 OVC012 01/01 A2939 RMK ST5SC3 SLP954
Loading
Personal Weather Stations






























Interactive Weather Map
Tropical Storm Tracking
New forecast layout! Learn more

10-Day Weather Forecast

Advertisements
Track Severe Weather on mobile